Time;durP1;ratioP1;P1;durP2;ratioP2;P2;SDS_P1;SDS_P2;PMS_P1;PMS_P2;Temp;Humidity;BMP_temperature;BMP_pressure;BME280_temperature;BME280_humidity;BME280_pressure;Samples;Min_cycle;Max_cycle;Signal;HPM_P1;HPM_P2
2022/05/30 00:02:11;;;;;;;10.10;2.10;;;9.80;99.90;;;;;;4930240;29;20286;-74
2022/05/30 00:04:55;;;;;;;10.17;2.40;;;9.90;99.90;;;;;;4931914;29;20198;-73
2022/05/30 00:07:40;;;;;;;7.00;2.23;;;9.80;99.90;;;;;;4927745;29;20222;-75
2022/05/30 00:10:25;;;;;;;11.03;2.47;;;9.80;99.90;;;;;;4937058;29;20239;-73
2022/05/30 00:13:10;;;;;;;7.40;2.30;;;9.80;99.90;;;;;;4930554;29;20190;-72
2022/05/30 00:15:54;;;;;;;6.70;2.00;;;9.80;99.90;;;;;;4927467;29;20202;-74
2022/05/30 00:18:39;;;;;;;6.23;2.03;;;9.80;99.90;;;;;;4935066;29;20202;-73
2022/05/30 00:21:25;;;;;;;11.53;2.50;;;9.80;99.90;;;;;;4929463;29;20222;-73
2022/05/30 00:24:10;;;;;;;9.77;2.70;;;9.70;99.90;;;;;;4931405;29;20193;-74
2022/05/30 00:26:54;;;;;;;7.03;2.23;;;9.70;99.90;;;;;;4928854;29;20287;-72
2022/05/30 00:29:39;;;;;;;6.70;2.10;;;9.70;99.90;;;;;;4925814;29;20225;-73
2022/05/30 00:32:24;;;;;;;10.57;2.40;;;9.70;99.90;;;;;;4931540;28;20274;-74
2022/05/30 00:35:10;;;;;;;12.83;2.57;;;9.60;99.90;;;;;;4944140;28;20186;-73
2022/05/30 00:37:54;;;;;;;6.00;2.23;;;9.60;99.90;;;;;;4935614;29;20238;-73
2022/05/30 00:40:40;;;;;;;9.63;2.50;;;9.60;99.90;;;;;;4926082;29;20230;-72
2022/05/30 00:43:32;;;;;;;12.77;2.90;;;9.60;99.90;;;;;;4935606;29;20270;-73
2022/05/30 00:46:16;;;;;;;7.57;2.40;;;9.60;99.90;;;;;;4931664;29;20275;-73
2022/05/30 00:49:07;;;;;;;10.43;3.10;;;9.60;99.90;;;;;;4931698;29;20238;-73
2022/05/30 00:51:55;;;;;;;9.13;2.30;;;9.60;99.90;;;;;;4933606;29;20183;-72
2022/05/30 00:54:53;;;;;;;8.27;2.57;;;9.50;99.90;;;;;;4930700;29;20207;-73
2022/05/30 00:57:39;;;;;;;9.83;2.63;;;9.50;99.90;;;;;;4929584;29;20266;-73
2022/05/30 01:00:25;;;;;;;5.37;2.03;;;9.50;99.90;;;;;;4927527;29;20226;-72
2022/05/30 01:06:33;;;;;;;9.13;2.47;;;9.50;99.90;;;;;;4927344;29;20269;-72
2022/05/30 01:09:22;;;;;;;5.47;2.13;;;9.50;99.90;;;;;;4930139;29;20286;-73
2022/05/30 01:12:09;;;;;;;7.93;2.60;;;9.50;99.90;;;;;;4925600;29;20216;-74
2022/05/30 01:14:54;;;;;;;9.93;2.43;;;9.50;99.90;;;;;;4929553;29;20214;-75
2022/05/30 01:17:48;;;;;;;8.23;2.17;;;9.40;99.90;;;;;;4928901;29;20242;-73
2022/05/30 01:20:39;;;;;;;9.07;2.50;;;9.40;99.90;;;;;;4928076;29;20786;-73
2022/05/30 01:23:54;;;;;;;10.27;2.67;;;9.40;99.90;;;;;;4929274;29;20235;-74
2022/05/30 01:27:15;;;;;;;6.07;2.40;;;9.40;99.90;;;;;;4930698;29;20273;-74
2022/05/30 01:30:07;;;;;;;7.50;1.97;;;9.50;99.90;;;;;;4927552;29;20263;-72
2022/05/30 01:32:57;;;;;;;6.53;2.00;;;9.40;99.90;;;;;;4942849;28;20277;-73
2022/05/30 01:35:42;;;;;;;6.47;2.27;;;9.40;99.90;;;;;;4930181;29;20203;-74
2022/05/30 01:38:28;;;;;;;10.67;2.20;;;9.40;99.90;;;;;;4930930;29;20204;-74
2022/05/30 01:41:12;;;;;;;10.87;2.50;;;9.40;99.90;;;;;;4928913;29;20221;-73
2022/05/30 01:43:56;;;;;;;8.93;2.60;;;9.40;99.90;;;;;;4928475;29;20244;-73
2022/05/30 01:46:41;;;;;;;8.90;2.13;;;9.40;99.90;;;;;;4930349;29;20355;-72
2022/05/30 01:49:26;;;;;;;9.90;2.00;;;9.40;99.90;;;;;;4931980;29;20226;-74
2022/05/30 01:52:10;;;;;;;6.70;2.10;;;9.40;99.90;;;;;;4948952;28;20210;-73
2022/05/30 01:54:55;;;;;;;6.37;2.20;;;9.40;99.90;;;;;;4933343;29;20204;-74
2022/05/30 01:57:39;;;;;;;6.33;2.03;;;9.40;99.90;;;;;;4927726;29;20231;-75
2022/05/30 02:00:25;;;;;;;4.80;1.87;;;9.40;99.90;;;;;;4929825;29;20250;-71
2022/05/30 02:03:09;;;;;;;10.40;2.33;;;9.40;99.90;;;;;;4929604;29;20218;-73
2022/05/30 02:05:53;;;;;;;6.50;2.57;;;9.30;99.90;;;;;;4930032;29;20320;-74
2022/05/30 02:08:37;;;;;;;3.43;1.70;;;9.30;99.90;;;;;;4932033;29;20183;-76
2022/05/30 02:11:22;;;;;;;10.03;2.00;;;9.30;99.90;;;;;;4933804;29;20225;-73
2022/05/30 02:14:06;;;;;;;4.60;1.37;;;9.30;99.90;;;;;;4932630;29;20198;-73
2022/05/30 02:17:06;;;;;;;4.50;1.57;;;9.30;99.90;;;;;;4935782;29;20226;-73
2022/05/30 02:19:51;;;;;;;5.47;1.73;;;9.30;99.90;;;;;;4931661;29;20271;-73
2022/05/30 02:22:36;;;;;;;5.27;1.73;;;9.40;99.90;;;;;;4942602;28;20323;-73
2022/05/30 02:25:20;;;;;;;5.00;1.73;;;9.30;99.90;;;;;;4931259;29;20194;-73
2022/05/30 02:28:04;;;;;;;5.40;1.80;;;9.20;99.90;;;;;;4930116;29;20218;-72
2022/05/30 02:30:49;;;;;;;6.23;1.77;;;9.10;99.90;;;;;;4936028;29;20303;-73
2022/05/30 02:36:39;;;;;;;6.50;1.60;;;9.10;99.90;;;;;;4933627;29;20241;-74
2022/05/30 02:39:26;;;;;;;5.33;1.47;;;9.10;99.90;;;;;;4934681;29;20674;-73
2022/05/30 02:42:11;;;;;;;5.53;1.80;;;9.10;99.90;;;;;;4934767;29;20189;-73
2022/05/30 02:44:55;;;;;;;3.80;1.40;;;9.10;99.90;;;;;;4934382;29;20202;-72
2022/05/30 02:47:39;;;;;;;5.83;1.47;;;9.10;99.90;;;;;;4932041;29;20685;-73
2022/05/30 02:50:24;;;;;;;6.53;1.83;;;9.10;99.90;;;;;;4928370;29;20223;-73
2022/05/30 02:53:09;;;;;;;4.40;1.30;;;9.10;99.90;;;;;;4937857;29;20186;-72
2022/05/30 02:55:53;;;;;;;5.87;1.70;;;9.10;99.90;;;;;;4930035;29;20202;-73
2022/05/30 02:58:37;;;;;;;7.23;1.30;;;9.10;99.90;;;;;;4937470;29;20177;-74
2022/05/30 03:01:22;;;;;;;2.80;1.40;;;9.10;99.90;;;;;;4927268;29;20234;-74
2022/05/30 03:04:07;;;;;;;6.87;1.47;;;9.00;99.90;;;;;;4927428;29;20254;-74
2022/05/30 03:06:51;;;;;;;2.77;1.60;;;9.00;99.90;;;;;;4930586;29;20239;-73
2022/05/30 03:09:35;;;;;;;8.00;1.40;;;9.00;99.90;;;;;;4930225;29;20183;-73
2022/05/30 03:12:22;;;;;;;6.87;1.60;;;9.00;99.90;;;;;;4938196;28;20190;-72
2022/05/30 03:15:07;;;;;;;2.50;0.97;;;9.00;99.90;;;;;;4945875;28;20798;-73
2022/05/30 03:17:52;;;;;;;3.33;1.50;;;9.00;99.90;;;;;;4929240;29;20679;-74
2022/05/30 03:20:36;;;;;;;3.67;1.10;;;9.00;99.90;;;;;;4928551;29;20215;-73
2022/05/30 03:23:21;;;;;;;6.43;1.33;;;9.00;99.90;;;;;;4924133;29;20211;-73
2022/05/30 03:26:06;;;;;;;5.07;1.70;;;9.00;99.90;;;;;;4925837;29;20231;-73
2022/05/30 03:28:51;;;;;;;4.53;1.23;;;9.00;99.90;;;;;;4922453;29;20244;-73
2022/05/30 03:31:35;;;;;;;2.93;1.10;;;9.00;99.90;;;;;;4927850;29;20266;-71
2022/05/30 03:34:20;;;;;;;4.30;1.03;;;9.00;99.90;;;;;;4929860;29;20219;-73
2022/05/30 03:37:04;;;;;;;5.33;1.33;;;9.00;99.90;;;;;;4931195;29;20263;-73
2022/05/30 03:39:48;;;;;;;4.53;1.33;;;9.00;99.90;;;;;;4930240;29;20214;-72
2022/05/30 03:42:34;;;;;;;2.83;1.10;;;9.00;99.90;;;;;;4935709;28;20199;-73
2022/05/30 03:45:18;;;;;;;2.63;1.40;;;9.00;99.90;;;;;;4931202;29;20612;-72
2022/05/30 03:48:03;;;;;;;3.83;1.53;;;9.00;99.90;;;;;;4929671;29;20326;-73
2022/05/30 03:50:49;;;;;;;3.67;1.30;;;9.00;99.90;;;;;;4932400;29;20251;-73
2022/05/30 03:53:33;;;;;;;3.53;1.27;;;9.00;99.90;;;;;;4933062;29;20190;-73
2022/05/30 03:56:21;;;;;;;4.60;1.07;;;9.00;99.90;;;;;;4932428;29;20236;-74
2022/05/30 03:59:05;;;;;;;7.00;1.87;;;9.00;99.90;;;;;;4928969;29;20263;-73
2022/05/30 04:01:49;;;;;;;4.07;1.40;;;9.00;99.90;;;;;;4929297;29;20226;-74
2022/05/30 04:04:34;;;;;;;5.77;1.50;;;9.00;99.90;;;;;;4943092;28;20203;-71
2022/05/30 04:07:18;;;;;;;3.73;1.50;;;9.00;99.90;;;;;;4923156;29;20263;-72
2022/05/30 04:10:03;;;;;;;4.27;1.80;;;9.00;99.90;;;;;;4943006;28;20222;-72
2022/05/30 04:12:48;;;;;;;4.57;1.87;;;9.00;99.90;;;;;;4932571;29;20195;-73
2022/05/30 04:15:32;;;;;;;2.73;1.77;;;9.00;99.90;;;;;;4927481;29;20271;-72
2022/05/30 04:18:16;;;;;;;2.93;1.33;;;9.00;99.90;;;;;;4928802;29;20187;-73
2022/05/30 04:21:01;;;;;;;6.37;1.43;;;9.00;99.90;;;;;;4933740;29;20218;-73
2022/05/30 04:23:45;;;;;;;8.67;1.93;;;9.00;99.90;;;;;;4928608;29;20546;-73
2022/05/30 04:26:30;;;;;;;7.53;2.53;;;9.00;99.90;;;;;;4932716;29;20226;-73
2022/05/30 04:29:14;;;;;;;6.07;1.80;;;9.00;99.90;;;;;;4937142;28;20251;-73
2022/05/30 04:32:03;;;;;;;3.60;1.60;;;9.00;99.90;;;;;;4930423;29;20195;-73
2022/05/30 04:34:47;;;;;;;5.43;1.77;;;9.00;99.90;;;;;;4925669;29;20328;-72
2022/05/30 04:37:32;;;;;;;3.23;1.87;;;9.00;99.90;;;;;;4930249;29;20765;-73
2022/05/30 04:40:19;;;;;;;3.67;1.80;;;9.00;99.90;;;;;;4935127;28;20231;-74
2022/05/30 04:43:03;;;;;;;8.93;2.17;;;9.00;99.90;;;;;;4929502;29;20293;-73
2022/05/30 04:46:01;;;;;;;4.23;1.80;;;9.00;99.90;;;;;;4928386;29;20622;-74
2022/05/30 04:48:46;;;;;;;6.10;2.10;;;9.00;99.90;;;;;;4925348;29;20565;-71
2022/05/30 04:51:30;;;;;;;6.40;1.77;;;9.00;99.90;;;;;;4931805;29;20218;-72
2022/05/30 04:54:15;;;;;;;8.37;1.93;;;9.00;99.90;;;;;;4927377;29;20195;-73
2022/05/30 04:56:59;;;;;;;8.67;2.40;;;9.00;99.90;;;;;;4926623;29;20210;-73
2022/05/30 04:59:43;;;;;;;5.60;2.10;;;9.00;99.90;;;;;;4931828;29;20255;-73
2022/05/30 05:02:27;;;;;;;5.57;2.10;;;9.00;99.90;;;;;;4944124;28;20232;-73
2022/05/30 05:05:12;;;;;;;6.70;2.03;;;9.00;99.90;;;;;;4937234;29;20544;-73
2022/05/30 05:08:06;;;;;;;5.60;2.17;;;9.00;99.90;;;;;;4930084;29;20232;-71
2022/05/30 05:11:04;;;;;;;4.23;1.77;;;9.10;99.90;;;;;;4924663;29;20221;-72
2022/05/30 05:13:49;;;;;;;4.00;2.07;;;9.10;99.90;;;;;;4931325;29;20198;-72
2022/05/30 05:16:34;;;;;;;5.37;2.30;;;9.10;99.90;;;;;;4941883;28;20259;-72
2022/05/30 05:19:19;;;;;;;4.43;2.13;;;9.10;99.90;;;;;;4928836;29;20210;-73
2022/05/30 05:22:04;;;;;;;4.50;2.40;;;9.10;99.90;;;;;;4926935;29;20230;-73
2022/05/30 05:24:48;;;;;;;3.00;2.00;;;9.10;99.90;;;;;;4926508;29;20318;-72
2022/05/30 05:27:33;;;;;;;5.50;2.07;;;9.20;99.90;;;;;;4925613;29;20234;-71
2022/05/30 05:30:18;;;;;;;4.00;2.50;;;9.20;99.90;;;;;;4925694;29;20225;-72
2022/05/30 05:33:03;;;;;;;7.57;2.57;;;9.20;99.90;;;;;;4937532;28;20191;-72
2022/05/30 05:35:47;;;;;;;5.70;2.23;;;9.20;99.90;;;;;;4924442;29;20235;-72
2022/05/30 05:38:31;;;;;;;4.50;2.20;;;9.30;99.90;;;;;;4938543;28;20191;-73
2022/05/30 05:41:16;;;;;;;8.87;2.40;;;9.30;99.90;;;;;;4924631;29;20239;-73
2022/05/30 05:44:00;;;;;;;8.73;2.73;;;9.30;99.90;;;;;;4927333;29;20198;-72
2022/05/30 05:46:44;;;;;;;4.73;2.60;;;9.30;99.90;;;;;;4924338;29;20226;-72
2022/05/30 05:49:28;;;;;;;4.07;2.50;;;9.40;99.90;;;;;;4936355;28;20199;-72
2022/05/30 05:52:13;;;;;;;8.30;2.17;;;9.40;99.90;;;;;;4935060;28;20203;-73
2022/05/30 05:54:58;;;;;;;5.33;2.60;;;9.40;99.90;;;;;;4925485;29;20191;-72
2022/05/30 05:57:42;;;;;;;4.53;2.23;;;9.50;99.90;;;;;;4923627;29;20335;-72
2022/05/30 06:00:26;;;;;;;4.57;2.20;;;9.60;99.90;;;;;;4927859;29;20222;-72
2022/05/30 06:03:11;;;;;;;4.80;2.30;;;9.60;99.90;;;;;;4923867;29;20255;-73
2022/05/30 06:05:55;;;;;;;6.37;2.30;;;9.70;99.90;;;;;;4928823;29;20221;-73
2022/05/30 06:08:39;;;;;;;3.53;2.13;;;9.70;99.90;;;;;;4924705;29;20202;-72
2022/05/30 06:11:24;;;;;;;7.20;2.30;;;9.70;99.90;;;;;;4944262;28;20293;-71
2022/05/30 06:14:08;;;;;;;4.40;2.27;;;9.70;99.90;;;;;;4924656;29;20272;-72
2022/05/30 06:16:53;;;;;;;8.00;2.77;;;9.80;99.90;;;;;;4925215;29;20286;-74
2022/05/30 06:19:37;;;;;;;3.93;1.83;;;9.80;99.90;;;;;;4924222;29;20261;-73
2022/05/30 06:22:21;;;;;;;4.07;1.80;;;9.90;99.90;;;;;;4920322;29;20254;-72
2022/05/30 06:25:06;;;;;;;8.00;2.10;;;10.00;99.90;;;;;;4926445;29;20202;-72
2022/05/30 06:27:50;;;;;;;3.73;1.77;;;10.00;99.90;;;;;;4925523;29;20231;-72
2022/05/30 06:30:37;;;;;;;5.10;1.73;;;10.10;99.90;;;;;;4936720;28;20298;-72
2022/05/30 06:33:22;;;;;;;4.40;1.87;;;10.20;99.90;;;;;;4948031;28;20267;-72
2022/05/30 06:36:08;;;;;;;4.10;1.93;;;10.20;99.90;;;;;;4943634;28;20246;-70
2022/05/30 06:38:55;;;;;;;4.73;1.60;;;10.30;99.90;;;;;;4926872;29;20232;-70
2022/05/30 06:41:41;;;;;;;8.87;2.00;;;10.30;99.90;;;;;;4925921;29;20281;-70
2022/05/30 06:44:25;;;;;;;7.33;1.40;;;10.40;99.90;;;;;;4949878;28;20187;-68
2022/05/30 06:47:09;;;;;;;10.97;1.57;;;10.40;99.90;;;;;;4930321;29;20271;-69
2022/05/30 06:49:53;;;;;;;4.70;1.97;;;10.40;99.90;;;;;;4944208;28;20290;-70
2022/05/30 06:52:38;;;;;;;4.83;2.23;;;10.60;99.90;;;;;;4933767;29;20266;-69
2022/05/30 06:55:22;;;;;;;5.63;1.50;;;10.60;99.90;;;;;;4929961;29;20716;-68
2022/05/30 06:58:15;;;;;;;9.23;1.63;;;10.60;99.90;;;;;;4932553;29;20194;-69
2022/05/30 07:01:01;;;;;;;3.93;1.60;;;10.70;99.90;;;;;;4945281;28;20262;-69
2022/05/30 07:03:46;;;;;;;5.20;1.47;;;10.70;99.90;;;;;;4932716;29;20243;-69
2022/05/30 07:06:34;;;;;;;8.47;2.00;;;10.80;99.90;;;;;;4929077;29;20634;-69
2022/05/30 07:09:19;;;;;;;3.90;1.17;;;10.80;99.90;;;;;;4919800;29;20248;-69
2022/05/30 07:12:03;;;;;;;5.27;1.50;;;10.90;99.90;;;;;;4925985;29;20283;-68
2022/05/30 07:14:48;;;;;;;5.63;1.47;;;10.90;99.90;;;;;;4929401;29;20659;-69
2022/05/30 07:17:32;;;;;;;5.17;1.80;;;10.90;99.90;;;;;;4924764;29;20250;-69
2022/05/30 07:20:16;;;;;;;3.80;1.40;;;11.00;99.90;;;;;;4927787;29;20218;-69
2022/05/30 07:23:01;;;;;;;4.57;1.10;;;11.10;99.90;;;;;;4931826;29;20286;-69
2022/05/30 07:25:45;;;;;;;2.83;1.07;;;11.10;99.90;;;;;;4926542;29;20204;-69
2022/05/30 07:28:30;;;;;;;5.70;1.27;;;11.20;99.90;;;;;;4934300;28;20188;-69
2022/05/30 07:31:17;;;;;;;4.00;1.30;;;11.30;99.90;;;;;;4920020;29;20219;-70
2022/05/30 07:34:01;;;;;;;6.17;1.37;;;11.40;99.90;;;;;;4942257;28;20202;-72
2022/05/30 07:36:45;;;;;;;4.17;1.00;;;11.40;99.90;;;;;;4936197;28;20227;-72
2022/05/30 07:39:30;;;;;;;3.27;1.27;;;11.40;99.90;;;;;;4939528;28;20223;-71
2022/05/30 07:42:14;;;;;;;2.60;1.10;;;11.50;99.90;;;;;;4925290;29;20557;-72
2022/05/30 07:44:58;;;;;;;4.60;1.43;;;11.50;99.90;;;;;;4923038;29;20204;-72
2022/05/30 07:47:42;;;;;;;8.77;1.47;;;11.60;99.90;;;;;;4923188;29;20247;-72
2022/05/30 07:50:26;;;;;;;3.33;0.90;;;11.60;99.90;;;;;;4923452;29;20261;-72
2022/05/30 07:53:10;;;;;;;3.37;0.80;;;11.70;99.90;;;;;;4930887;29;20212;-71
2022/05/30 07:55:54;;;;;;;2.40;1.13;;;11.80;99.90;;;;;;4922852;29;20238;-71
2022/05/30 07:58:38;;;;;;;2.67;0.73;;;11.80;99.90;;;;;;4945336;28;20179;-71
2022/05/30 08:01:22;;;;;;;7.03;1.10;;;11.80;99.90;;;;;;4927247;29;20256;-71
2022/05/30 08:04:12;;;;;;;3.87;0.90;;;11.90;99.90;;;;;;4930347;29;20198;-71
2022/05/30 08:06:56;;;;;;;2.23;1.40;;;11.90;99.90;;;;;;4931011;29;20224;-72
2022/05/30 08:09:40;;;;;;;2.57;1.00;;;12.10;99.90;;;;;;4932771;29;20230;-71
2022/05/30 08:12:25;;;;;;;3.17;0.90;;;12.10;99.90;;;;;;4921048;29;20212;-72
2022/05/30 08:15:11;;;;;;;3.30;0.90;;;12.20;99.90;;;;;;4921634;29;20194;-71
2022/05/30 08:17:57;;;;;;;3.07;1.10;;;12.20;99.90;;;;;;4924869;29;20195;-72
2022/05/30 08:20:42;;;;;;;7.73;1.17;;;12.30;99.90;;;;;;4930724;29;20269;-72
2022/05/30 08:23:27;;;;;;;3.17;0.90;;;12.30;99.90;;;;;;4930572;29;20590;-69
2022/05/30 08:26:13;;;;;;;2.23;0.80;;;12.40;99.90;;;;;;4926531;29;20250;-69
2022/05/30 08:28:57;;;;;;;5.30;1.00;;;12.50;99.90;;;;;;4920503;29;20279;-69
2022/05/30 08:31:41;;;;;;;1.80;0.63;;;12.50;99.90;;;;;;4917959;29;20210;-69
2022/05/30 08:34:25;;;;;;;1.57;0.73;;;12.60;99.90;;;;;;4919348;29;20213;-70
2022/05/30 08:37:10;;;;;;;1.53;0.73;;;12.60;99.90;;;;;;4927074;29;20195;-69
2022/05/30 08:42:57;;;;;;;2.50;0.73;;;12.60;99.90;;;;;;4926344;29;20674;-71
2022/05/30 08:45:44;;;;;;;1.47;0.70;;;12.70;99.90;;;;;;4921202;29;20215;-71
2022/05/30 08:48:56;;;;;;;1.80;0.87;;;12.80;99.90;;;;;;4924272;29;20263;-72
2022/05/30 08:51:53;;;;;;;2.57;0.70;;;12.80;99.90;;;;;;4942529;28;20202;-72
2022/05/30 08:54:55;;;;;;;1.10;0.60;;;12.90;99.90;;;;;;4930349;29;20223;-72
2022/05/30 08:58:33;;;;;;;1.60;0.73;;;12.90;99.90;;;;;;4926928;29;20210;-72
2022/05/30 09:01:27;;;;;;;2.60;0.98;;;13.00;99.90;;;;;;4914568;29;20455;-72
2022/05/30 09:04:19;;;;;;;4.83;0.90;;;13.00;99.90;;;;;;4915370;29;20205;-72
2022/05/30 09:07:11;;;;;;;5.22;0.95;;;12.90;99.90;;;;;;4928661;29;20466;-72
2022/05/30 09:10:06;;;;;;;1.47;0.43;;;13.00;99.90;;;;;;4929097;29;20270;-72
2022/05/30 09:13:06;;;;;;;1.87;0.50;;;13.00;99.90;;;;;;4927225;29;20544;-73
2022/05/30 09:16:09;;;;;;;2.97;0.60;;;13.10;99.90;;;;;;4944619;28;20254;-73
2022/05/30 09:18:55;;;;;;;2.67;0.70;;;13.10;99.90;;;;;;4928396;29;20195;-72
2022/05/30 09:21:39;;;;;;;2.77;0.63;;;13.20;99.90;;;;;;4937008;28;20211;-72
2022/05/30 09:24:24;;;;;;;2.27;0.90;;;13.20;99.90;;;;;;4926352;29;20757;-72
2022/05/30 09:27:08;;;;;;;3.57;0.80;;;13.20;99.90;;;;;;4925382;29;20211;-72
2022/05/30 09:29:55;;;;;;;2.40;0.70;;;13.20;99.90;;;;;;4929591;29;20202;-72
2022/05/30 09:33:09;;;;;;;3.73;0.77;;;13.20;99.90;;;;;;4920997;29;20251;-73
2022/05/30 09:36:09;;;;;;;2.10;0.70;;;13.10;99.90;;;;;;4931493;29;20285;-72
2022/05/30 09:38:57;;;;;;;2.07;0.63;;;13.10;99.90;;;;;;4930033;29;20186;-72
2022/05/30 09:41:41;;;;;;;1.60;0.50;;;13.10;99.90;;;;;;4940005;28;20281;-72
2022/05/30 09:44:41;;;;;;;1.90;0.40;;;13.20;99.90;;;;;;4928697;29;20191;-72
2022/05/30 09:47:25;;;;;;;4.90;0.70;;;13.20;99.90;;;;;;4931319;29;20207;-72
2022/05/30 09:50:21;;;;;;;1.70;0.57;;;13.10;99.90;;;;;;4942840;28;20270;-72
2022/05/30 09:53:05;;;;;;;2.50;0.60;;;13.00;99.90;;;;;;4923475;29;20184;-72
2022/05/30 09:55:51;;;;;;;3.10;0.87;;;13.00;99.90;;;;;;4924465;29;20255;-71
2022/05/30 09:59:09;;;;;;;3.67;0.90;;;13.00;99.90;;;;;;4931908;28;20271;-72
2022/05/30 10:01:54;;;;;;;1.10;0.63;;;12.90;99.90;;;;;;4918600;29;20251;-72
2022/05/30 10:04:41;;;;;;;1.37;0.50;;;12.90;99.90;;;;;;4930818;29;20194;-73
2022/05/30 10:07:27;;;;;;;4.23;0.70;;;12.80;99.90;;;;;;4929570;29;20671;-72
2022/05/30 10:10:23;;;;;;;1.53;0.50;;;12.90;99.90;;;;;;4926665;29;20226;-72
2022/05/30 10:13:10;;;;;;;1.23;0.70;;;12.80;99.90;;;;;;4934160;29;20233;-71
2022/05/30 10:15:58;;;;;;;2.43;0.70;;;12.80;99.90;;;;;;4925298;29;20255;-72
2022/05/30 10:18:55;;;;;;;1.33;0.70;;;12.80;99.90;;;;;;4942868;28;20199;-72
2022/05/30 10:28:50;;;;;;;4.27;0.80;;;12.80;99.90;;;;;;4925935;29;20678;-72
2022/05/30 10:32:04;;;;;;;2.83;0.63;;;12.80;99.90;;;;;;4929216;29;20243;-71
2022/05/30 10:34:55;;;;;;;3.00;0.80;;;12.80;99.90;;;;;;4937998;28;20199;-72
2022/05/30 10:38:18;;;;;;;2.87;1.00;;;12.80;99.90;;;;;;4933100;29;20274;-72
2022/05/30 10:41:21;;;;;;;1.73;0.60;;;12.80;99.90;;;;;;4933946;29;20226;-72
2022/05/30 10:44:11;;;;;;;1.43;0.67;;;12.90;99.90;;;;;;4931618;29;20558;-72
2022/05/30 10:47:17;;;;;;;3.07;1.00;;;12.90;99.90;;;;;;4916967;29;21003;-72
2022/05/30 10:50:10;;;;;;;1.73;0.60;;;13.00;99.90;;;;;;4928756;29;20223;-73
2022/05/30 10:53:05;;;;;;;1.13;0.57;;;13.10;99.90;;;;;;4932712;29;20190;-73
2022/05/30 10:55:52;;;;;;;1.97;0.90;;;13.00;99.90;;;;;;4924045;29;20265;-73
2022/05/30 10:58:56;;;;;;;0.60;0.47;;;13.00;99.90;;;;;;4925186;29;20191;-72
2022/05/30 11:01:55;;;;;;;0.73;0.53;;;13.10;99.90;;;;;;4941619;28;20623;-72
2022/05/30 11:04:55;;;;;;;1.80;0.40;;;13.10;99.90;;;;;;4922445;29;20279;-71
2022/05/30 11:08:08;;;;;;;1.43;0.50;;;13.10;99.90;;;;;;4924823;29;20616;-71
2022/05/30 11:10:59;;;;;;;1.97;0.83;;;13.20;99.90;;;;;;4943165;28;20206;-72
2022/05/30 11:14:08;;;;;;;1.67;0.60;;;13.20;99.90;;;;;;4945957;28;20242;-72
2022/05/30 11:17:15;;;;;;;4.97;0.53;;;13.40;99.90;;;;;;4920486;29;20671;-71
2022/05/30 11:20:02;;;;;;;1.73;0.43;;;13.50;99.90;;;;;;4928916;29;20600;-71
2022/05/30 11:22:49;;;;;;;3.00;0.57;;;13.50;99.90;;;;;;4925667;29;20320;-72
2022/05/30 11:25:55;;;;;;;2.27;0.90;;;13.50;99.90;;;;;;4944550;28;20214;-72
2022/05/30 11:28:57;;;;;;;2.43;0.60;;;13.60;99.90;;;;;;4921809;29;20574;-72
2022/05/30 11:32:08;;;;;;;5.27;1.13;;;13.60;99.90;;;;;;4921077;29;20574;-72
2022/05/30 11:35:14;;;;;;;2.60;0.70;;;13.70;99.90;;;;;;4928484;29;20676;-71
2022/05/30 11:38:05;;;;;;;1.53;0.80;;;13.70;99.90;;;;;;4922263;29;20254;-72
2022/05/30 11:41:28;;;;;;;6.67;0.93;;;13.70;99.90;;;;;;4917181;29;20275;-71
2022/05/30 11:44:43;;;;;;;1.83;0.80;;;13.80;99.90;;;;;;4928538;29;20202;-72
2022/05/30 11:47:49;;;;;;;4.17;1.00;;;13.80;99.90;;;;;;4932163;29;20703;-72
2022/05/30 11:50:36;;;;;;;1.40;0.73;;;13.90;99.90;;;;;;4930479;29;20242;-71
2022/05/30 11:53:33;;;;;;;2.80;1.07;;;14.00;99.90;;;;;;4924171;29;20192;-72
2022/05/30 11:56:31;;;;;;;8.33;1.63;;;14.00;99.90;;;;;;4928737;29;20207;-71
2022/05/30 11:59:37;;;;;;;0.70;0.70;;;14.10;99.90;;;;;;4928765;29;20203;-72
2022/05/30 12:03:09;;;;;;;2.17;0.80;;;14.10;99.90;;;;;;4928937;29;20744;-72
2022/05/30 12:05:59;;;;;;;2.30;0.90;;;14.20;99.90;;;;;;4946470;28;20203;-71
2022/05/30 12:09:19;;;;;;;2.23;1.00;;;14.20;99.90;;;;;;4932021;29;20683;-71
2022/05/30 12:12:50;;;;;;;0.73;0.50;;;14.30;99.90;;;;;;4924370;29;20293;-71
2022/05/30 12:16:03;;;;;;;0.53;0.47;;;14.40;99.90;;;;;;4931509;29;20552;-71
2022/05/30 12:25:00;;;;;;;2.37;1.00;;;14.60;99.90;;;;;;4929504;29;20201;-72
2022/05/30 12:27:46;;;;;;;2.87;0.70;;;14.70;99.90;;;;;;4928336;29;20214;-71
2022/05/30 12:30:36;;;;;;;0.70;0.50;;;14.70;99.90;;;;;;4923529;29;20218;-71
2022/05/30 12:33:29;;;;;;;1.60;0.67;;;14.70;99.90;;;;;;4926643;29;20200;-71
2022/05/30 12:36:15;;;;;;;2.23;0.50;;;14.60;99.90;;;;;;4928845;29;20266;-72
2022/05/30 12:39:01;;;;;;;1.03;0.70;;;14.60;99.90;;;;;;4913857;29;20224;-72
2022/05/30 12:41:58;;;;;;;1.33;0.50;;;14.60;99.90;;;;;;4921864;29;20230;-71
2022/05/30 12:44:51;;;;;;;2.17;0.80;;;14.60;99.90;;;;;;4923031;29;20195;-72
2022/05/30 12:47:36;;;;;;;2.07;0.70;;;14.70;99.90;;;;;;4923183;29;20207;-71
2022/05/30 12:50:36;;;;;;;1.03;0.50;;;14.60;99.90;;;;;;4929241;29;20273;-71
2022/05/30 12:53:23;;;;;;;0.60;0.60;;;14.70;99.90;;;;;;4942034;28;20230;-71
2022/05/30 12:56:07;;;;;;;0.73;0.63;;;14.70;99.90;;;;;;4922787;29;20187;-74
2022/05/30 12:59:15;;;;;;;2.17;0.60;;;14.70;99.90;;;;;;4922060;29;20214;-72
2022/05/30 13:02:02;;;;;;;1.97;0.80;;;14.70;99.90;;;;;;4941183;28;20235;-71
2022/05/30 13:04:52;;;;;;;3.10;0.70;;;14.70;99.90;;;;;;4925747;29;20283;-71
2022/05/30 13:07:36;;;;;;;1.53;0.73;;;14.80;99.90;;;;;;4926133;29;20226;-71
2022/05/30 13:10:20;;;;;;;2.67;0.90;;;14.90;99.90;;;;;;4921556;29;20656;-71
2022/05/30 13:13:13;;;;;;;3.53;0.80;;;14.90;99.90;;;;;;4926539;29;20215;-71
2022/05/30 13:16:06;;;;;;;1.00;0.90;;;14.80;99.90;;;;;;4922458;29;20272;-72
2022/05/30 13:18:50;;;;;;;5.00;0.97;;;14.90;99.90;;;;;;4931034;29;20183;-72
2022/05/30 13:21:36;;;;;;;0.83;0.83;;;14.90;99.90;;;;;;4919835;29;20227;-72
2022/05/30 13:24:32;;;;;;;3.00;0.83;;;14.90;99.90;;;;;;4922573;29;20187;-72
2022/05/30 13:27:16;;;;;;;1.23;0.70;;;15.00;99.90;;;;;;4917912;29;20635;-71
2022/05/30 13:30:09;;;;;;;0.93;0.63;;;15.10;99.90;;;;;;4928511;29;20223;-71
2022/05/30 13:32:54;;;;;;;2.43;0.83;;;15.20;99.90;;;;;;4942262;28;20315;-71
2022/05/30 13:35:39;;;;;;;2.10;0.80;;;15.20;99.90;;;;;;4941238;28;20235;-71
2022/05/30 13:38:45;;;;;;;3.30;1.00;;;15.30;99.90;;;;;;4928953;29;20191;-72
2022/05/30 13:41:38;;;;;;;1.37;0.80;;;15.40;99.90;;;;;;4932621;29;20313;-72
2022/05/30 13:44:26;;;;;;;1.33;0.70;;;15.40;99.90;;;;;;4942874;28;20246;-72
2022/05/30 13:47:15;;;;;;;2.23;0.87;;;15.40;99.90;;;;;;4932602;29;20267;-72
2022/05/30 13:49:59;;;;;;;1.77;0.73;;;15.40;99.90;;;;;;4931286;29;20222;-72
2022/05/30 13:52:44;;;;;;;4.00;0.83;;;15.40;99.90;;;;;;4930910;29;20555;-72
2022/05/30 13:55:29;;;;;;;2.20;0.70;;;15.30;99.90;;;;;;4924678;29;20252;-72
2022/05/30 13:58:15;;;;;;;2.70;0.70;;;15.30;99.90;;;;;;4935142;29;20563;-71
2022/05/30 14:01:01;;;;;;;3.90;0.60;;;15.20;99.90;;;;;;4926633;29;20210;-72
2022/05/30 14:03:54;;;;;;;3.97;0.60;;;15.20;99.90;;;;;;4928723;29;20195;-71
2022/05/30 14:06:43;;;;;;;2.63;0.70;;;15.10;99.90;;;;;;4927032;29;20783;-71
2022/05/30 14:09:27;;;;;;;0.70;0.47;;;15.00;99.90;;;;;;4932681;29;20191;-72
2022/05/30 14:12:11;;;;;;;1.50;0.40;;;14.90;99.90;;;;;;4929846;29;20234;-71
2022/05/30 14:15:10;;;;;;;2.33;0.60;;;14.90;99.90;;;;;;4932900;29;20231;-71
2022/05/30 14:17:55;;;;;;;3.83;0.90;;;14.90;99.90;;;;;;4929112;29;20206;-72
2022/05/30 14:20:49;;;;;;;0.73;0.60;;;14.80;99.90;;;;;;4931472;29;20240;-72
2022/05/30 14:23:34;;;;;;;1.90;1.03;;;14.80;99.90;;;;;;4928504;29;20271;-72
2022/05/30 14:26:30;;;;;;;3.03;0.70;;;14.60;99.90;;;;;;4931456;29;20222;-72
2022/05/30 14:29:40;;;;;;;1.47;0.80;;;14.60;99.90;;;;;;4926959;29;20283;-71
2022/05/30 14:32:33;;;;;;;1.77;0.73;;;14.50;99.90;;;;;;4933051;29;20305;-72
2022/05/30 14:35:27;;;;;;;1.50;0.67;;;14.60;99.90;;;;;;4933713;29;20251;-71
2022/05/30 14:38:29;;;;;;;1.97;0.90;;;14.60;99.90;;;;;;4925703;29;20275;-71
2022/05/30 14:41:20;;;;;;;6.77;5.33;;;14.50;99.90;;;;;;4930425;29;20320;-71
2022/05/30 14:44:04;;;;;;;2.33;1.10;;;14.50;99.90;;;;;;4938345;28;20223;-70
2022/05/30 14:46:50;;;;;;;1.77;0.90;;;14.50;99.90;;;;;;4933873;29;20307;-71
2022/05/30 14:49:45;;;;;;;1.37;1.20;;;14.50;99.90;;;;;;4928592;29;20187;-71
2022/05/30 14:52:34;;;;;;;1.23;0.80;;;14.50;99.90;;;;;;4936341;28;20194;-71
2022/05/30 14:55:30;;;;;;;2.73;1.00;;;14.50;99.90;;;;;;4931028;29;20199;-72
2022/05/30 14:58:28;;;;;;;2.13;1.00;;;14.40;99.90;;;;;;4931142;29;20258;-71
2022/05/30 15:01:21;;;;;;;2.53;1.20;;;14.50;99.90;;;;;;4930604;29;20266;-72
2022/05/30 15:04:05;;;;;;;0.90;0.90;;;14.60;99.90;;;;;;4926025;29;20199;-72
2022/05/30 15:07:10;;;;;;;1.00;0.90;;;14.60;99.90;;;;;;4928367;29;20267;-72
2022/05/30 15:09:54;;;;;;;1.33;0.97;;;14.60;99.90;;;;;;4927061;29;20231;-72